createdAt,value
2022-08-29T00:01:30.860Z,6.78
2022-08-29T00:03:59.460Z,7.12
2022-08-29T00:06:27.686Z,7.05
2022-08-29T00:08:55.100Z,6.55
2022-08-29T00:11:22.834Z,6.00
2022-08-29T00:13:50.402Z,6.80
2022-08-29T00:16:18.992Z,6.65
2022-08-29T00:18:46.712Z,7.30
2022-08-29T00:21:14.193Z,7.07
2022-08-29T00:23:42.915Z,6.35
2022-08-29T00:26:11.110Z,6.68
2022-08-29T00:28:38.633Z,6.15
2022-08-29T00:31:06.187Z,6.68
2022-08-29T00:33:33.989Z,6.05
2022-08-29T00:36:02.714Z,6.12
2022-08-29T00:38:31.719Z,6.50
2022-08-29T00:40:59.473Z,6.62
2022-08-29T00:43:31.275Z,6.37
2022-08-29T00:46:18.160Z,6.47
2022-08-29T00:48:50.481Z,6.93
2022-08-29T00:51:22.585Z,6.32
2022-08-29T00:53:58.265Z,7.35
2022-08-29T00:56:26.481Z,5.82
2022-08-29T00:58:57.107Z,6.05
2022-08-29T01:01:25.198Z,6.05
2022-08-29T01:03:53.611Z,6.07
2022-08-29T01:06:22.311Z,7.03
2022-08-29T01:08:57.252Z,6.85
2022-08-29T01:11:47.379Z,6.50
2022-08-29T01:14:16.883Z,6.70
2022-08-29T01:16:46.134Z,7.07
2022-08-29T01:19:35.804Z,6.40
2022-08-29T01:22:07.776Z,6.80
2022-08-29T01:24:39.895Z,6.75
2022-08-29T01:27:08.176Z,6.00
2022-08-29T01:29:36.181Z,6.57
2022-08-29T01:32:04.281Z,6.82
2022-08-29T01:34:32.095Z,5.93
2022-08-29T01:37:03.457Z,6.45
2022-08-29T01:39:34.018Z,5.93
2022-08-29T01:42:06.363Z,6.22
2022-08-29T01:44:33.804Z,6.28
2022-08-29T01:47:03.407Z,5.85
2022-08-29T01:49:34.541Z,6.20
2022-08-29T01:52:04.149Z,5.40
2022-08-29T01:54:32.637Z,5.55
2022-08-29T01:57:01.598Z,5.70
2022-08-29T01:59:30.717Z,6.20
2022-08-29T02:02:00.856Z,5.53
2022-08-29T02:04:28.869Z,6.05
2022-08-29T02:06:56.537Z,6.15
2022-08-29T02:09:25.222Z,6.70
2022-08-29T02:11:55.082Z,6.65
2022-08-29T02:14:23.695Z,6.03
2022-08-29T02:16:51.129Z,6.72
2022-08-29T02:19:19.470Z,5.78
2022-08-29T02:21:46.986Z,5.80
2022-08-29T02:24:25.404Z,6.37
2022-08-29T02:26:55.310Z,6.03
2022-08-29T02:29:23.180Z,6.30
2022-08-29T02:31:50.675Z,6.03
2022-08-29T02:34:18.459Z,6.57
2022-08-29T02:36:49.023Z,6.30
2022-08-29T02:39:18.055Z,6.65
2022-08-29T02:41:46.006Z,6.70
2022-08-29T02:44:13.596Z,6.22
2022-08-29T02:46:41.157Z,7.45
2022-08-29T02:49:08.928Z,6.78
2022-08-29T02:51:36.359Z,7.32
2022-08-29T02:54:03.988Z,7.30
2022-08-29T02:56:31.654Z,7.35
2022-08-29T02:58:59.801Z,7.53
2022-08-29T03:01:27.691Z,7.95
2022-08-29T03:03:55.877Z,7.22
2022-08-29T03:06:23.626Z,7.53
2022-08-29T03:08:51.576Z,7.32
2022-08-29T03:11:21.961Z,7.62
2022-08-29T03:13:49.547Z,7.97
2022-08-29T03:16:17.287Z,8.15
2022-08-29T03:18:44.974Z,8.52
2022-08-29T03:21:17.158Z,7.53
2022-08-29T03:23:44.928Z,8.38
2022-08-29T03:26:12.422Z,8.75
2022-08-29T03:28:39.871Z,8.73
2022-08-29T03:31:07.761Z,8.35
2022-08-29T03:33:35.315Z,8.80
2022-08-29T03:36:03.520Z,8.02
2022-08-29T03:38:42.585Z,8.30
2022-08-29T03:41:10.010Z,8.38
2022-08-29T03:43:37.615Z,8.80
2022-08-29T03:46:05.371Z,8.95
2022-08-29T03:48:33.881Z,8.43
2022-08-29T03:51:01.359Z,9.35
2022-08-29T03:53:30.724Z,9.13
2022-08-29T03:55:58.435Z,9.50
2022-08-29T03:58:25.994Z,9.48
2022-08-29T04:00:53.717Z,9.65
2022-08-29T04:03:24.975Z,9.80
2022-08-29T04:05:59.199Z,9.50
2022-08-29T04:08:27.214Z,8.85
2022-08-29T04:10:54.680Z,9.20
2022-08-29T04:13:22.213Z,9.98
2022-08-29T04:15:50.492Z,10.38
2022-08-29T04:18:21.617Z,9.63
2022-08-29T04:20:50.244Z,10.40
2022-08-29T04:23:17.663Z,10.02
2022-08-29T04:25:45.137Z,10.00
2022-08-29T04:28:14.596Z,9.88
2022-08-29T04:30:51.206Z,10.43
2022-08-29T04:33:22.744Z,9.30
2022-08-29T04:35:51.853Z,9.55
2022-08-29T04:38:19.846Z,9.10
2022-08-29T04:40:48.030Z,9.52
2022-08-29T04:43:15.424Z,8.93
2022-08-29T04:45:42.910Z,9.57
2022-08-29T04:48:10.909Z,9.55
2022-08-29T04:50:39.138Z,8.88
2022-08-29T04:53:06.650Z,8.90
2022-08-29T04:55:34.365Z,8.88
2022-08-29T04:58:01.971Z,8.27
2022-08-29T05:00:31.502Z,8.73
2022-08-29T05:03:00.237Z,10.05
2022-08-29T05:05:28.068Z,10.05
2022-08-29T05:07:55.489Z,9.55
2022-08-29T05:10:23.510Z,9.90
2022-08-29T05:12:50.909Z,8.88
2022-08-29T05:15:18.763Z,9.00
2022-08-29T05:17:46.443Z,8.18
2022-08-29T05:20:14.164Z,8.45
2022-08-29T05:22:42.206Z,8.75
2022-08-29T05:25:17.390Z,8.70
2022-08-29T05:27:46.701Z,8.85
2022-08-29T05:30:16.397Z,8.80
2022-08-29T05:32:52.031Z,9.40
2022-08-29T05:35:19.830Z,8.70
2022-08-29T05:37:47.313Z,8.20
2022-08-29T05:40:14.735Z,8.27
2022-08-29T05:42:42.950Z,8.85
2022-08-29T05:45:11.016Z,8.57
2022-08-29T05:47:38.590Z,8.98
2022-08-29T05:50:07.549Z,8.82
2022-08-29T05:52:34.992Z,8.15
2022-08-29T05:55:02.526Z,8.95
2022-08-29T05:57:30.340Z,9.18
2022-08-29T05:59:58.053Z,8.88
2022-08-29T06:02:25.552Z,9.93
2022-08-29T06:04:53.552Z,8.95
2022-08-29T06:07:20.970Z,8.98
2022-08-29T06:09:48.568Z,9.40
2022-08-29T06:12:16.572Z,8.85
2022-08-29T06:14:50.287Z,8.52
2022-08-29T06:17:19.016Z,9.25
2022-08-29T06:19:50.119Z,9.75
2022-08-29T06:22:19.346Z,8.25
2022-08-29T06:24:47.489Z,9.18
2022-08-29T06:27:16.247Z,8.77
2022-08-29T06:29:44.088Z,8.15
2022-08-29T06:32:13.071Z,7.80
2022-08-29T06:34:40.887Z,7.68
2022-08-29T06:37:08.525Z,7.43
2022-08-29T06:39:36.457Z,7.53
2022-08-29T06:42:04.346Z,7.55
2022-08-29T06:44:32.059Z,6.75
2022-08-29T06:47:00.091Z,6.93
2022-08-29T06:49:28.063Z,6.57
2022-08-29T06:51:58.341Z,5.90
2022-08-29T06:54:28.659Z,6.72
2022-08-29T06:56:57.781Z,6.40
2022-08-29T06:59:25.748Z,5.95
2022-08-29T07:01:55.411Z,6.03
2022-08-29T07:04:23.220Z,6.25
2022-08-29T07:06:54.741Z,6.35
2022-08-29T07:09:22.546Z,6.10
2022-08-29T07:11:50.000Z,5.20
2022-08-29T07:14:18.247Z,5.47
2022-08-29T07:16:45.921Z,5.28
2022-08-29T07:19:13.340Z,5.43
2022-08-29T07:21:41.073Z,5.37
2022-08-29T07:24:08.774Z,5.65
2022-08-29T07:26:42.246Z,5.45
2022-08-29T07:29:13.826Z,5.22
2022-08-29T07:31:41.740Z,5.43
2022-08-29T07:34:09.787Z,5.37
2022-08-29T07:36:38.101Z,4.93
2022-08-29T07:39:08.832Z,5.50
2022-08-29T07:41:38.110Z,5.30
2022-08-29T07:44:05.921Z,4.93
2022-08-29T07:46:33.475Z,4.40
2022-08-29T07:49:01.027Z,4.10
2022-08-29T07:51:28.978Z,4.35
2022-08-29T07:53:57.369Z,4.05
2022-08-29T07:56:28.666Z,3.60
2022-08-29T07:58:57.900Z,3.67
2022-08-29T08:01:25.754Z,3.47
2022-08-29T08:03:54.297Z,4.00
2022-08-29T08:06:27.065Z,3.70
2022-08-29T08:08:55.590Z,3.53
2022-08-29T08:11:24.659Z,4.10
2022-08-29T08:13:55.974Z,3.40
2022-08-29T08:16:25.668Z,3.70
2022-08-29T08:18:53.872Z,3.08
2022-08-29T08:21:21.535Z,3.30
2022-08-29T08:23:49.463Z,3.40
2022-08-29T08:26:17.417Z,4.05
2022-08-29T08:28:45.348Z,3.50
2022-08-29T08:31:14.973Z,3.65
2022-08-29T08:33:44.838Z,3.50
2022-08-29T08:36:18.349Z,3.65
2022-08-29T08:38:46.890Z,3.92
2022-08-29T08:41:27.417Z,3.92
2022-08-29T08:44:00.613Z,3.92
2022-08-29T08:46:37.658Z,3.80
2022-08-29T08:49:27.404Z,3.87
2022-08-29T08:51:59.521Z,4.05
2022-08-29T08:54:29.676Z,4.50
2022-08-29T08:57:11.677Z,4.30
2022-08-29T08:59:45.399Z,4.43
2022-08-29T09:02:45.469Z,4.40
2022-08-29T09:05:39.417Z,4.28
2022-08-29T09:08:09.969Z,4.97
2022-08-29T09:10:58.581Z,4.90
2022-08-29T09:13:39.400Z,4.30
2022-08-29T09:16:29.295Z,4.90
2022-08-29T09:19:00.512Z,4.72
2022-08-29T09:21:41.033Z,4.72
2022-08-29T09:24:13.750Z,4.57
2022-08-29T09:26:41.521Z,4.37
2022-08-29T09:29:10.045Z,4.93
2022-08-29T09:31:37.757Z,4.37
2022-08-29T09:34:08.249Z,5.15
2022-08-29T09:36:47.773Z,4.87
2022-08-29T09:39:21.048Z,4.70
2022-08-29T09:41:53.139Z,4.65
2022-08-29T09:44:32.508Z,4.15
2022-08-29T09:47:12.516Z,4.50
2022-08-29T09:49:42.489Z,4.60
2022-08-29T09:52:14.387Z,4.47
2022-08-29T09:54:43.589Z,4.70
2022-08-29T09:57:25.819Z,3.58
2022-08-29T10:00:16.367Z,4.60
2022-08-29T10:02:49.934Z,4.37
2022-08-29T10:07:55.803Z,4.55
2022-08-29T10:10:25.880Z,4.85
2022-08-29T10:13:08.669Z,4.18
2022-08-29T10:15:51.181Z,4.37
2022-08-29T10:19:04.657Z,4.18
2022-08-29T10:21:41.532Z,4.22
2022-08-29T10:24:19.586Z,4.45
2022-08-29T10:27:03.751Z,4.07
2022-08-29T10:29:48.096Z,4.32
2022-08-29T10:35:14.307Z,4.10
2022-08-29T10:37:47.709Z,3.85
2022-08-29T10:40:21.803Z,3.72
2022-08-29T10:42:51.534Z,4.03
2022-08-29T10:45:36.281Z,3.53
2022-08-29T10:48:11.822Z,3.60
2022-08-29T10:50:46.897Z,3.55
2022-08-29T10:53:21.591Z,3.75
2022-08-29T10:56:05.895Z,3.28
2022-08-29T10:58:53.341Z,3.47
2022-08-29T11:01:27.770Z,3.53
2022-08-29T11:04:01.903Z,3.78
2022-08-29T11:06:34.843Z,2.90
2022-08-29T11:09:21.509Z,3.33
2022-08-29T11:12:18.110Z,3.00
2022-08-29T11:14:53.969Z,3.03
2022-08-29T11:17:26.092Z,3.03
2022-08-29T11:20:00.832Z,2.97
2022-08-29T11:22:40.479Z,3.03
2022-08-29T11:25:18.222Z,3.22
2022-08-29T11:28:04.425Z,3.03
2022-08-29T11:30:59.290Z,3.40
2022-08-29T11:33:37.818Z,3.08
2022-08-29T11:36:08.645Z,2.65
2022-08-29T11:39:00.266Z,2.67
2022-08-29T11:41:35.731Z,2.85
2022-08-29T11:44:40.014Z,2.95
2022-08-29T11:47:41.118Z,3.05
2022-08-29T11:50:14.766Z,2.47
2022-08-29T11:53:20.886Z,2.83
2022-08-29T11:56:13.419Z,2.78
2022-08-29T11:58:48.095Z,2.70
2022-08-29T12:01:24.897Z,2.67
2022-08-29T12:03:56.844Z,2.70
2022-08-29T12:06:55.945Z,2.58
2022-08-29T12:09:41.401Z,2.62
2022-08-29T12:12:15.580Z,2.62
2022-08-29T12:14:50.569Z,2.37
2022-08-29T12:17:23.360Z,2.20
2022-08-29T12:19:56.863Z,2.45
2022-08-29T12:22:52.119Z,2.80
2022-08-29T12:25:45.898Z,2.20
2022-08-29T12:28:16.093Z,2.42
2022-08-29T12:30:47.140Z,2.30
2022-08-29T12:33:17.475Z,2.50
2022-08-29T12:36:07.786Z,2.42
2022-08-29T12:39:07.172Z,2.30
2022-08-29T12:41:51.326Z,2.28
2022-08-29T12:44:25.230Z,2.12
2022-08-29T12:47:02.805Z,2.20
2022-08-29T12:49:39.747Z,2.30
2022-08-29T12:52:28.664Z,3.55
2022-08-29T12:54:57.897Z,2.42
2022-08-29T12:57:36.911Z,2.28
2022-08-29T13:00:11.417Z,2.50
2022-08-29T13:02:39.253Z,2.33
2022-08-29T13:05:26.914Z,2.28
2022-08-29T13:08:01.787Z,2.65
2022-08-29T13:10:29.757Z,2.20
2022-08-29T13:13:06.995Z,2.12
2022-08-29T13:15:34.938Z,2.47
2022-08-29T13:18:03.346Z,2.47
2022-08-29T13:20:43.216Z,2.12
2022-08-29T13:23:24.301Z,2.22
2022-08-29T13:26:02.068Z,2.65
2022-08-29T13:28:43.127Z,2.50
2022-08-29T13:31:16.766Z,2.35
2022-08-29T13:33:59.624Z,2.22
2022-08-29T13:36:27.038Z,2.42
2022-08-29T13:39:26.478Z,2.22
2022-08-29T13:42:02.940Z,2.58
2022-08-29T13:44:45.574Z,2.50
2022-08-29T13:47:16.080Z,2.37
2022-08-29T13:49:43.806Z,2.20
2022-08-29T13:52:11.836Z,2.58
2022-08-29T13:54:43.067Z,2.40
2022-08-29T13:57:18.933Z,2.17
2022-08-29T13:59:46.606Z,2.30
2022-08-29T14:02:14.981Z,2.30
2022-08-29T14:04:47.975Z,2.60
2022-08-29T14:07:22.073Z,2.30
2022-08-29T14:12:17.977Z,2.17
2022-08-29T14:14:45.634Z,2.05
2022-08-29T14:17:18.391Z,2.20
2022-08-29T14:19:47.011Z,2.33
2022-08-29T14:22:15.140Z,2.30
2022-08-29T14:24:42.813Z,2.20
2022-08-29T14:27:10.485Z,2.10
2022-08-29T14:29:38.482Z,2.30
2022-08-29T14:32:05.968Z,2.40
2022-08-29T14:34:33.392Z,2.03
2022-08-29T14:37:01.617Z,2.22
2022-08-29T14:39:30.552Z,2.12
2022-08-29T14:41:57.974Z,1.85
2022-08-29T14:44:25.920Z,2.15
2022-08-29T14:46:53.354Z,2.05
2022-08-29T14:49:25.294Z,2.53
2022-08-29T14:51:53.040Z,2.70
2022-08-29T14:54:20.494Z,2.12
2022-08-29T14:56:49.459Z,2.45
2022-08-29T14:59:19.407Z,2.72
2022-08-29T15:01:52.978Z,2.40
2022-08-29T15:04:35.410Z,2.60
2022-08-29T15:07:11.944Z,2.83
2022-08-29T15:09:41.734Z,2.37
2022-08-29T15:12:10.443Z,2.60
2022-08-29T15:14:38.116Z,2.55
2022-08-29T15:17:06.372Z,2.75
2022-08-29T15:22:23.035Z,2.42
2022-08-29T15:24:51.356Z,2.35
2022-08-29T15:27:27.346Z,2.40
2022-08-29T15:29:56.854Z,2.55
2022-08-29T15:32:25.884Z,2.47
2022-08-29T15:34:53.394Z,2.80
2022-08-29T15:37:22.040Z,2.60
2022-08-29T15:39:54.997Z,2.65
2022-08-29T15:42:28.969Z,2.67
2022-08-29T15:44:58.667Z,2.53
2022-08-29T15:47:27.173Z,2.78
2022-08-29T15:49:54.946Z,2.70
2022-08-29T15:52:22.419Z,2.47
2022-08-29T15:54:50.739Z,2.75
2022-08-29T15:57:19.549Z,2.80
2022-08-29T15:59:58.188Z,2.78
2022-08-29T16:02:28.047Z,2.55
2022-08-29T16:04:57.357Z,3.00
2022-08-29T16:07:29.093Z,2.72
2022-08-29T16:10:05.759Z,3.53
2022-08-29T16:12:39.809Z,3.22
2022-08-29T16:15:09.993Z,3.15
2022-08-29T16:17:39.254Z,3.22
2022-08-29T16:20:11.530Z,3.35
2022-08-29T16:22:40.366Z,3.10
2022-08-29T16:25:09.913Z,3.03
2022-08-29T16:27:37.729Z,3.58
2022-08-29T16:30:06.636Z,3.62
2022-08-29T16:32:34.642Z,4.00
2022-08-29T16:35:02.393Z,3.72
2022-08-29T16:37:29.912Z,3.62
2022-08-29T16:39:59.276Z,3.70
2022-08-29T16:42:30.449Z,3.65
2022-08-29T16:44:59.915Z,3.95
2022-08-29T16:47:28.006Z,3.30
2022-08-29T16:49:55.658Z,3.97
2022-08-29T16:52:23.495Z,3.53
2022-08-29T16:54:52.067Z,3.47
2022-08-29T16:57:21.808Z,2.90
2022-08-29T16:59:49.566Z,2.97
2022-08-29T17:02:17.354Z,2.87
2022-08-29T17:04:46.639Z,3.10
2022-08-29T17:07:14.577Z,2.90
2022-08-29T17:09:42.030Z,2.58
2022-08-29T17:12:09.861Z,2.90
2022-08-29T17:14:37.677Z,2.92
2022-08-29T17:17:05.339Z,2.85
2022-08-29T17:19:33.739Z,3.17
2022-08-29T17:22:01.649Z,3.28
2022-08-29T17:24:29.118Z,3.05
2022-08-29T17:26:57.626Z,2.83
2022-08-29T17:29:25.436Z,2.90
2022-08-29T17:31:52.930Z,2.80
2022-08-29T17:34:20.348Z,3.20
2022-08-29T17:36:49.727Z,3.20
2022-08-29T17:39:17.229Z,2.80
2022-08-29T17:41:50.622Z,3.00
2022-08-29T17:44:18.458Z,3.58
2022-08-29T17:46:46.328Z,3.10
2022-08-29T17:49:14.068Z,3.50
2022-08-29T17:51:42.149Z,3.10
2022-08-29T17:54:14.931Z,3.05
2022-08-29T17:56:55.234Z,3.42
2022-08-29T17:59:23.967Z,3.08
2022-08-29T18:01:52.512Z,3.42
2022-08-29T18:04:20.708Z,3.42
2022-08-29T18:06:48.411Z,3.55
2022-08-29T18:09:15.857Z,3.35
2022-08-29T18:11:47.706Z,3.35
2022-08-29T18:14:16.889Z,3.17
2022-08-29T18:16:44.803Z,3.90
2022-08-29T18:19:13.569Z,3.40
2022-08-29T18:21:41.655Z,3.50
2022-08-29T18:24:13.870Z,3.40
2022-08-29T18:26:42.621Z,3.53
2022-08-29T18:29:11.144Z,3.47
2022-08-29T18:31:40.867Z,3.20
2022-08-29T18:34:09.553Z,3.03
2022-08-29T18:36:40.049Z,4.32
2022-08-29T18:39:08.505Z,3.97
2022-08-29T18:41:36.077Z,3.42
2022-08-29T18:44:04.014Z,3.55
2022-08-29T18:46:32.450Z,3.67
2022-08-29T18:49:00.159Z,3.72
2022-08-29T18:51:28.050Z,3.35
2022-08-29T18:53:57.673Z,3.72
2022-08-29T18:56:26.966Z,4.15
2022-08-29T18:58:58.867Z,3.60
2022-08-29T19:01:29.037Z,3.65
2022-08-29T19:03:58.999Z,3.55
2022-08-29T19:06:27.463Z,4.10
2022-08-29T19:08:56.607Z,3.72
2022-08-29T19:11:25.383Z,3.70
2022-08-29T19:15:00.836Z,3.97
2022-08-29T19:16:41.058Z,3.67
2022-08-29T19:19:13.430Z,3.87
2022-08-29T19:21:42.353Z,3.60
2022-08-29T19:24:10.276Z,3.92
2022-08-29T19:26:40.165Z,4.20
2022-08-29T19:29:12.998Z,4.20
2022-08-29T19:31:42.133Z,3.87
2022-08-29T19:34:09.670Z,4.20
2022-08-29T19:36:39.158Z,3.60
2022-08-29T19:39:06.836Z,3.60
2022-08-29T19:41:34.938Z,4.30
2022-08-29T19:44:02.847Z,3.75
2022-08-29T19:46:32.448Z,3.70
2022-08-29T19:49:00.453Z,4.47
2022-08-29T19:51:32.637Z,4.32
2022-08-29T19:54:03.228Z,3.70
2022-08-29T19:56:33.410Z,4.32
2022-08-29T19:59:01.820Z,4.43
2022-08-29T20:01:29.868Z,4.10
2022-08-29T20:03:57.758Z,3.97
2022-08-29T20:06:25.793Z,4.00
2022-08-29T20:08:54.158Z,4.03
2022-08-29T20:11:25.073Z,4.00
2022-08-29T20:13:59.405Z,3.80
2022-08-29T20:16:30.454Z,4.07
2022-08-29T20:18:58.974Z,4.15
2022-08-29T20:21:26.877Z,4.50
2022-08-29T20:23:58.349Z,4.10
2022-08-29T20:26:34.630Z,3.85
2022-08-29T20:29:05.311Z,4.10
2022-08-29T20:31:33.075Z,4.50
2022-08-29T20:34:01.023Z,4.30
2022-08-29T20:36:47.558Z,4.37
2022-08-29T20:39:18.018Z,4.28
2022-08-29T20:41:50.686Z,4.68
2022-08-29T20:44:20.407Z,4.87
2022-08-29T20:46:49.136Z,4.50
2022-08-29T20:49:19.622Z,4.65
2022-08-29T20:51:48.397Z,4.37
2022-08-29T20:54:19.272Z,4.53
2022-08-29T20:56:48.786Z,4.43
2022-08-29T20:59:16.667Z,4.80
2022-08-29T21:01:44.497Z,4.10
2022-08-29T21:04:31.542Z,4.55
2022-08-29T21:07:01.645Z,4.60
2022-08-29T21:09:29.189Z,4.40
2022-08-29T21:11:57.122Z,4.50
2022-08-29T21:14:27.333Z,4.60
2022-08-29T21:16:56.803Z,4.03
2022-08-29T21:19:27.350Z,4.25
2022-08-29T21:21:57.322Z,4.60
2022-08-29T21:24:25.180Z,4.60
2022-08-29T21:26:52.869Z,4.78
2022-08-29T21:29:20.882Z,4.68
2022-08-29T21:31:49.453Z,4.85
2022-08-29T21:34:17.408Z,4.70
2022-08-29T21:36:45.277Z,5.07
2022-08-29T21:39:13.715Z,4.15
2022-08-29T21:41:57.432Z,4.95
2022-08-29T21:44:24.834Z,4.43
2022-08-29T21:46:52.796Z,5.07
2022-08-29T21:49:21.875Z,4.85
2022-08-29T21:51:49.530Z,4.85
2022-08-29T21:54:17.572Z,4.55
2022-08-29T21:56:45.904Z,4.95
2022-08-29T21:59:14.985Z,4.70
2022-08-29T22:01:43.832Z,5.22
2022-08-29T22:04:18.667Z,4.80
2022-08-29T22:06:55.108Z,5.03
2022-08-29T22:09:23.629Z,5.03
2022-08-29T22:11:51.974Z,4.87
2022-08-29T22:14:19.396Z,4.53
2022-08-29T22:16:47.462Z,4.87
2022-08-29T22:19:16.962Z,4.95
2022-08-29T22:21:51.988Z,4.90
2022-08-29T22:24:20.104Z,5.03
2022-08-29T22:26:47.767Z,4.50
2022-08-29T22:29:16.092Z,4.93
2022-08-29T22:31:44.993Z,5.25
2022-08-29T22:34:14.407Z,5.30
2022-08-29T22:36:42.776Z,4.87
2022-08-29T22:39:10.887Z,4.60
2022-08-29T22:41:38.469Z,5.30
2022-08-29T22:46:54.702Z,5.47
2022-08-29T22:49:22.171Z,5.07
2022-08-29T22:51:50.336Z,5.03
2022-08-29T22:54:36.776Z,5.05
2022-08-29T22:57:10.246Z,4.65
2022-08-29T22:59:38.705Z,5.55
2022-08-29T23:02:07.524Z,5.10
2022-08-29T23:04:35.434Z,5.65
2022-08-29T23:07:03.946Z,5.70
2022-08-29T23:09:35.242Z,5.37
2022-08-29T23:12:05.916Z,5.05
2022-08-29T23:14:37.720Z,5.18
2022-08-29T23:17:07.075Z,4.40
2022-08-29T23:19:35.450Z,5.20
2022-08-29T23:22:03.098Z,4.75
2022-08-29T23:24:31.728Z,5.62
2022-08-29T23:26:59.277Z,5.53
2022-08-29T23:29:27.463Z,5.12
2022-08-29T23:31:55.181Z,5.93
2022-08-29T23:34:23.599Z,5.47
2022-08-29T23:36:51.133Z,5.68
2022-08-29T23:39:18.926Z,5.03
2022-08-29T23:41:46.471Z,5.90
2022-08-29T23:44:13.875Z,6.07
2022-08-29T23:46:41.681Z,5.00
2022-08-29T23:49:09.243Z,5.60
2022-08-29T23:51:36.692Z,4.85
2022-08-29T23:54:04.390Z,5.78
2022-08-29T23:56:32.132Z,5.32
2022-08-29T23:58:59.794Z,5.05
